sensor_id;sensor_type;location;lat;lon;timestamp;pressure;altitude;pressure_sealevel;temperature;humidity
70544;BME280;58097;48.364;-1.224;2023-09-30T00:02:06;100611.72;;;13.38;83.02
70544;BME280;58097;48.364;-1.224;2023-09-30T00:04:31;100614.66;;;13.37;82.65
70544;BME280;58097;48.364;-1.224;2023-09-30T00:06:57;100615.69;;;13.36;82.83
70544;BME280;58097;48.364;-1.224;2023-09-30T00:09:22;100626.81;;;13.36;82.89
70544;BME280;58097;48.364;-1.224;2023-09-30T00:11:47;100623.72;;;13.39;83.72
70544;BME280;58097;48.364;-1.224;2023-09-30T00:14:13;100614.84;;;13.35;83.45
70544;BME280;58097;48.364;-1.224;2023-09-30T00:16:38;100611.34;;;13.33;83.31
70544;BME280;58097;48.364;-1.224;2023-09-30T00:19:03;100624.91;;;13.36;82.75
70544;BME280;58097;48.364;-1.224;2023-09-30T00:21:29;100631.50;;;13.35;82.38
70544;BME280;58097;48.364;-1.224;2023-09-30T00:23:55;100638.25;;;13.32;82.52
70544;BME280;58097;48.364;-1.224;2023-09-30T00:26:20;100643.22;;;13.29;82.81
70544;BME280;58097;48.364;-1.224;2023-09-30T00:28:47;100654.03;;;13.32;83.61
70544;BME280;58097;48.364;-1.224;2023-09-30T00:31:12;100656.97;;;13.30;83.47
70544;BME280;58097;48.364;-1.224;2023-09-30T00:33:38;100661.38;;;13.23;83.26
70544;BME280;58097;48.364;-1.224;2023-09-30T00:36:08;100654.25;;;13.21;83.92
70544;BME280;58097;48.364;-1.224;2023-09-30T00:38:33;100662.59;;;13.21;84.14
70544;BME280;58097;48.364;-1.224;2023-09-30T00:40:59;100658.78;;;13.22;84.43
70544;BME280;58097;48.364;-1.224;2023-09-30T00:43:25;100658.94;;;13.20;85.12
70544;BME280;58097;48.364;-1.224;2023-09-30T00:46:05;100660.69;;;13.21;84.96
70544;BME280;58097;48.364;-1.224;2023-09-30T00:48:33;100661.72;;;13.20;85.11
70544;BME280;58097;48.364;-1.224;2023-09-30T00:50:59;100663.28;;;13.23;85.08
70544;BME280;58097;48.364;-1.224;2023-09-30T00:53:24;100669.81;;;13.31;85.35
70544;BME280;58097;48.364;-1.224;2023-09-30T00:55:50;100663.59;;;13.38;85.26
70544;BME280;58097;48.364;-1.224;2023-09-30T00:58:17;100661.53;;;13.40;85.36
70544;BME280;58097;48.364;-1.224;2023-09-30T01:00:43;100671.13;;;13.45;85.36
70544;BME280;58097;48.364;-1.224;2023-09-30T01:03:08;100674.44;;;13.49;85.17
70544;BME280;58097;48.364;-1.224;2023-09-30T01:05:35;100671.72;;;13.57;85.09
70544;BME280;58097;48.364;-1.224;2023-09-30T01:08:02;100679.19;;;13.56;84.79
70544;BME280;58097;48.364;-1.224;2023-09-30T01:10:28;100679.19;;;13.56;85.17
70544;BME280;58097;48.364;-1.224;2023-09-30T01:12:53;100678.72;;;13.61;85.46
70544;BME280;58097;48.364;-1.224;2023-09-30T01:15:19;100676.47;;;13.64;85.79
70544;BME280;58097;48.364;-1.224;2023-09-30T01:17:45;100685.78;;;13.55;86.19
70544;BME280;58097;48.364;-1.224;2023-09-30T01:20:12;100667.69;;;13.51;85.98
70544;BME280;58097;48.364;-1.224;2023-09-30T01:22:41;100655.72;;;13.51;86.26
70544;BME280;58097;48.364;-1.224;2023-09-30T01:25:10;100648.75;;;13.47;86.35
70544;BME280;58097;48.364;-1.224;2023-09-30T01:27:35;100651.84;;;13.44;86.11
70544;BME280;58097;48.364;-1.224;2023-09-30T01:30:00;100648.03;;;13.45;86.19
70544;BME280;58097;48.364;-1.224;2023-09-30T01:32:26;100655.16;;;13.47;86.27
70544;BME280;58097;48.364;-1.224;2023-09-30T01:34:52;100654.69;;;13.52;86.24
70544;BME280;58097;48.364;-1.224;2023-09-30T01:37:17;100644.22;;;13.46;87.06
70544;BME280;58097;48.364;-1.224;2023-09-30T01:39:42;100632.91;;;13.39;87.18
70544;BME280;58097;48.364;-1.224;2023-09-30T01:42:10;100633.06;;;13.38;86.17
70544;BME280;58097;48.364;-1.224;2023-09-30T01:44:36;100642.44;;;13.37;85.96
70544;BME280;58097;48.364;-1.224;2023-09-30T01:47:01;100641.72;;;13.35;86.22
70544;BME280;58097;48.364;-1.224;2023-09-30T01:49:26;100650.91;;;13.35;86.26
70544;BME280;58097;48.364;-1.224;2023-09-30T01:51:52;100641.56;;;13.36;86.29
70544;BME280;58097;48.364;-1.224;2023-09-30T01:54:17;100645.53;;;13.33;85.90
70544;BME280;58097;48.364;-1.224;2023-09-30T01:56:42;100639.50;;;13.20;87.80
70544;BME280;58097;48.364;-1.224;2023-09-30T01:59:08;100644.91;;;13.22;86.19
70544;BME280;58097;48.364;-1.224;2023-09-30T02:01:33;100651.69;;;13.27;86.58
70544;BME280;58097;48.364;-1.224;2023-09-30T02:03:58;100654.91;;;13.32;86.90
70544;BME280;58097;48.364;-1.224;2023-09-30T02:06:24;100650.53;;;13.30;86.37
70544;BME280;58097;48.364;-1.224;2023-09-30T02:08:49;100646.56;;;13.32;87.09
70544;BME280;58097;48.364;-1.224;2023-09-30T02:11:14;100646.25;;;13.36;86.82
70544;BME280;58097;48.364;-1.224;2023-09-30T02:13:42;100638.53;;;13.29;86.79
70544;BME280;58097;48.364;-1.224;2023-09-30T02:16:12;100624.53;;;13.31;86.75
70544;BME280;58097;48.364;-1.224;2023-09-30T02:18:42;100624.75;;;13.38;87.09
70544;BME280;58097;48.364;-1.224;2023-09-30T02:21:10;100621.47;;;13.42;87.15
70544;BME280;58097;48.364;-1.224;2023-09-30T02:23:35;100619.88;;;13.40;86.99
70544;BME280;58097;48.364;-1.224;2023-09-30T02:26:02;100627.69;;;13.36;86.81
70544;BME280;58097;48.364;-1.224;2023-09-30T02:28:28;100615.69;;;13.36;87.12
70544;BME280;58097;48.364;-1.224;2023-09-30T02:30:53;100617.59;;;13.35;87.04
70544;BME280;58097;48.364;-1.224;2023-09-30T02:33:19;100620.88;;;13.30;87.53
70544;BME280;58097;48.364;-1.224;2023-09-30T02:35:45;100618.09;;;13.30;87.85
70544;BME280;58097;48.364;-1.224;2023-09-30T02:38:11;100612.69;;;13.29;87.27
70544;BME280;58097;48.364;-1.224;2023-09-30T02:40:37;100608.16;;;13.28;87.39
70544;BME280;58097;48.364;-1.224;2023-09-30T02:43:03;100610.66;;;13.31;87.81
70544;BME280;58097;48.364;-1.224;2023-09-30T02:45:29;100601.28;;;13.32;87.56
70544;BME280;58097;48.364;-1.224;2023-09-30T02:47:54;100600.25;;;13.33;87.53
70544;BME280;58097;48.364;-1.224;2023-09-30T02:50:20;100606.13;;;13.30;87.23
70544;BME280;58097;48.364;-1.224;2023-09-30T02:52:46;100612.53;;;13.30;87.62
70544;BME280;58097;48.364;-1.224;2023-09-30T02:55:12;100606.34;;;13.37;88.17
70544;BME280;58097;48.364;-1.224;2023-09-30T02:57:38;100594.03;;;13.39;87.78
70544;BME280;58097;48.364;-1.224;2023-09-30T03:00:05;100592.47;;;13.37;87.40
70544;BME280;58097;48.364;-1.224;2023-09-30T03:03:01;100590.56;;;13.37;87.85
70544;BME280;58097;48.364;-1.224;2023-09-30T03:05:27;100585.66;;;13.31;87.54
70544;BME280;58097;48.364;-1.224;2023-09-30T03:07:53;100585.50;;;13.32;87.89
70544;BME280;58097;48.364;-1.224;2023-09-30T03:10:20;100578.91;;;13.33;88.01
70544;BME280;58097;48.364;-1.224;2023-09-30T03:12:49;100591.41;;;13.38;87.97
70544;BME280;58097;48.364;-1.224;2023-09-30T03:15:15;100586.25;;;13.43;87.85
70544;BME280;58097;48.364;-1.224;2023-09-30T03:17:41;100580.53;;;13.44;87.61
70544;BME280;58097;48.364;-1.224;2023-09-30T03:20:10;100565.06;;;13.42;87.26
70544;BME280;58097;48.364;-1.224;2023-09-30T03:22:43;100559.34;;;13.43;87.47
70544;BME280;58097;48.364;-1.224;2023-09-30T03:25:12;100557.59;;;13.42;87.90
70544;BME280;58097;48.364;-1.224;2023-09-30T03:27:40;100567.50;;;13.45;87.72
70544;BME280;58097;48.364;-1.224;2023-09-30T03:30:07;100579.66;;;13.44;88.05
70544;BME280;58097;48.364;-1.224;2023-09-30T03:32:32;100560.56;;;13.41;87.80
70544;BME280;58097;48.364;-1.224;2023-09-30T03:35:10;100550.47;;;13.40;88.21
70544;BME280;58097;48.364;-1.224;2023-09-30T03:37:39;100535.72;;;13.39;88.15
70544;BME280;58097;48.364;-1.224;2023-09-30T03:40:05;100544.22;;;13.38;88.21
70544;BME280;58097;48.364;-1.224;2023-09-30T03:42:41;100555.88;;;13.41;88.37
70544;BME280;58097;48.364;-1.224;2023-09-30T03:45:10;100558.66;;;13.41;88.25
70544;BME280;58097;48.364;-1.224;2023-09-30T03:47:38;100567.47;;;13.37;88.15
70544;BME280;58097;48.364;-1.224;2023-09-30T03:50:04;100578.03;;;13.33;88.35
70544;BME280;58097;48.364;-1.224;2023-09-30T03:52:33;100579.22;;;13.30;88.07
70544;BME280;58097;48.364;-1.224;2023-09-30T03:55:01;100583.19;;;13.28;88.62
70544;BME280;58097;48.364;-1.224;2023-09-30T03:57:31;100588.19;;;13.24;88.52
70544;BME280;58097;48.364;-1.224;2023-09-30T03:59:57;100593.56;;;13.26;89.09
70544;BME280;58097;48.364;-1.224;2023-09-30T04:02:22;100592.00;;;13.23;89.24
70544;BME280;58097;48.364;-1.224;2023-09-30T04:04:47;100583.13;;;13.20;88.83
70544;BME280;58097;48.364;-1.224;2023-09-30T04:07:16;100585.75;;;13.21;89.25
70544;BME280;58097;48.364;-1.224;2023-09-30T04:09:42;100589.72;;;13.19;88.94
70544;BME280;58097;48.364;-1.224;2023-09-30T04:12:07;100589.53;;;13.20;89.35
70544;BME280;58097;48.364;-1.224;2023-09-30T04:14:33;100583.28;;;13.18;88.93
70544;BME280;58097;48.364;-1.224;2023-09-30T04:16:58;100582.56;;;13.16;88.66
70544;BME280;58097;48.364;-1.224;2023-09-30T04:19:23;100580.03;;;13.23;89.56
70544;BME280;58097;48.364;-1.224;2023-09-30T04:21:49;100581.28;;;13.28;89.08
70544;BME280;58097;48.364;-1.224;2023-09-30T04:24:14;100569.78;;;13.23;88.97
70544;BME280;58097;48.364;-1.224;2023-09-30T04:26:39;100567.00;;;13.23;88.81
70544;BME280;58097;48.364;-1.224;2023-09-30T04:29:05;100553.50;;;13.28;89.13
70544;BME280;58097;48.364;-1.224;2023-09-30T04:31:31;100550.38;;;13.23;88.61
70544;BME280;58097;48.364;-1.224;2023-09-30T04:33:56;100556.25;;;13.20;88.84
70544;BME280;58097;48.364;-1.224;2023-09-30T04:36:23;100549.66;;;13.21;88.66
70544;BME280;58097;48.364;-1.224;2023-09-30T04:38:48;100549.41;;;13.15;88.62
70544;BME280;58097;48.364;-1.224;2023-09-30T04:41:14;100549.75;;;13.12;88.64
70544;BME280;58097;48.364;-1.224;2023-09-30T04:43:41;100540.00;;;13.08;88.03
70544;BME280;58097;48.364;-1.224;2023-09-30T04:46:06;100538.25;;;13.07;87.95
70544;BME280;58097;48.364;-1.224;2023-09-30T04:48:33;100531.84;;;13.06;87.95
70544;BME280;58097;48.364;-1.224;2023-09-30T04:50:59;100528.19;;;13.06;87.76
70544;BME280;58097;48.364;-1.224;2023-09-30T04:53:24;100517.25;;;13.04;87.48
70544;BME280;58097;48.364;-1.224;2023-09-30T04:55:49;100526.47;;;13.05;87.33
70544;BME280;58097;48.364;-1.224;2023-09-30T04:58:15;100536.69;;;13.04;87.93
70544;BME280;58097;48.364;-1.224;2023-09-30T05:00:41;100538.34;;;12.97;87.62
70544;BME280;58097;48.364;-1.224;2023-09-30T05:03:07;100534.31;;;12.91;87.51
70544;BME280;58097;48.364;-1.224;2023-09-30T05:05:32;100539.16;;;12.89;87.28
70544;BME280;58097;48.364;-1.224;2023-09-30T05:07:57;100540.19;;;12.88;87.23
70544;BME280;58097;48.364;-1.224;2023-09-30T05:10:24;100536.69;;;12.86;87.17
70544;BME280;58097;48.364;-1.224;2023-09-30T05:12:50;100538.59;;;12.86;87.43
70544;BME280;58097;48.364;-1.224;2023-09-30T05:15:20;100546.06;;;12.85;87.15
70544;BME280;58097;48.364;-1.224;2023-09-30T05:17:45;100545.03;;;12.86;87.08
70544;BME280;58097;48.364;-1.224;2023-09-30T05:20:11;100538.59;;;12.86;87.31
70544;BME280;58097;48.364;-1.224;2023-09-30T05:22:38;100537.41;;;12.88;87.55
70544;BME280;58097;48.364;-1.224;2023-09-30T05:25:06;100537.56;;;12.87;87.69
70544;BME280;58097;48.364;-1.224;2023-09-30T05:27:32;100535.66;;;12.87;87.75
70544;BME280;58097;48.364;-1.224;2023-09-30T05:29:57;100532.72;;;12.89;88.13
70544;BME280;58097;48.364;-1.224;2023-09-30T05:32:23;100536.59;;;12.96;88.61
70544;BME280;58097;48.364;-1.224;2023-09-30T05:34:48;100542.31;;;12.94;88.52
70544;BME280;58097;48.364;-1.224;2023-09-30T05:37:14;100548.34;;;12.90;88.98
70544;BME280;58097;48.364;-1.224;2023-09-30T05:39:39;100562.88;;;12.84;88.72
70544;BME280;58097;48.364;-1.224;2023-09-30T05:42:05;100554.69;;;12.82;88.78
70544;BME280;58097;48.364;-1.224;2023-09-30T05:44:32;100546.22;;;12.84;88.85
70544;BME280;58097;48.364;-1.224;2023-09-30T05:46:57;100540.34;;;12.87;88.77
70544;BME280;58097;48.364;-1.224;2023-09-30T05:49:23;100538.28;;;12.89;88.71
70544;BME280;58097;48.364;-1.224;2023-09-30T05:51:48;100537.25;;;12.90;88.34
70544;BME280;58097;48.364;-1.224;2023-09-30T05:54:16;100543.84;;;12.89;88.15
70544;BME280;58097;48.364;-1.224;2023-09-30T05:56:41;100550.41;;;12.88;88.10
70544;BME280;58097;48.364;-1.224;2023-09-30T05:59:08;100550.25;;;12.89;88.09
70544;BME280;58097;48.364;-1.224;2023-09-30T06:01:34;100550.94;;;12.91;88.03
70544;BME280;58097;48.364;-1.224;2023-09-30T06:04:01;100560.31;;;12.90;88.19
70544;BME280;58097;48.364;-1.224;2023-09-30T06:06:27;100551.28;;;12.88;88.03
70544;BME280;58097;48.364;-1.224;2023-09-30T06:08:57;100547.78;;;12.86;88.03
70544;BME280;58097;48.364;-1.224;2023-09-30T06:11:26;100550.03;;;12.83;87.92
70544;BME280;58097;48.364;-1.224;2023-09-30T06:13:56;100561.59;;;12.78;88.26
70544;BME280;58097;48.364;-1.224;2023-09-30T06:16:24;100569.94;;;12.78;88.49
70544;BME280;58097;48.364;-1.224;2023-09-30T06:18:51;100568.34;;;12.76;88.91
70544;BME280;58097;48.364;-1.224;2023-09-30T06:21:17;100571.66;;;12.79;89.07
70544;BME280;58097;48.364;-1.224;2023-09-30T06:23:49;100567.88;;;12.80;88.87
70544;BME280;58097;48.364;-1.224;2023-09-30T06:26:17;100580.22;;;12.86;89.30
70544;BME280;58097;48.364;-1.224;2023-09-30T06:28:42;100572.59;;;12.88;89.15
70544;BME280;58097;48.364;-1.224;2023-09-30T06:31:08;100585.13;;;12.92;89.33
70544;BME280;58097;48.364;-1.224;2023-09-30T06:33:35;100596.22;;;12.92;89.25
70544;BME280;58097;48.364;-1.224;2023-09-30T06:36:00;100599.69;;;12.94;89.47
70544;BME280;58097;48.364;-1.224;2023-09-30T06:38:27;100595.28;;;13.01;89.50
70544;BME280;58097;48.364;-1.224;2023-09-30T06:40:52;100597.88;;;13.02;89.67
70544;BME280;58097;48.364;-1.224;2023-09-30T06:43:19;100592.56;;;13.09;89.72
70544;BME280;58097;48.364;-1.224;2023-09-30T06:45:45;100595.72;;;13.14;89.78
70544;BME280;58097;48.364;-1.224;2023-09-30T06:48:12;100600.31;;;13.23;90.09
70544;BME280;58097;48.364;-1.224;2023-09-30T06:50:48;100584.78;;;13.30;89.93
70544;BME280;58097;48.364;-1.224;2023-09-30T06:53:17;100594.53;;;13.35;90.04
70544;BME280;58097;48.364;-1.224;2023-09-30T06:55:44;100592.13;;;13.40;90.20
70544;BME280;58097;48.364;-1.224;2023-09-30T06:58:10;100588.38;;;13.49;89.97
70544;BME280;58097;48.364;-1.224;2023-09-30T07:00:40;100585.63;;;13.57;90.04
70544;BME280;58097;48.364;-1.224;2023-09-30T07:03:06;100603.41;;;13.64;89.97
70544;BME280;58097;48.364;-1.224;2023-09-30T07:05:32;100604.66;;;13.70;90.12
70544;BME280;58097;48.364;-1.224;2023-09-30T07:07:57;100611.97;;;13.79;89.81
70544;BME280;58097;48.364;-1.224;2023-09-30T07:10:23;100607.19;;;13.89;89.64
70544;BME280;58097;48.364;-1.224;2023-09-30T07:12:49;100609.13;;;13.97;89.77
70544;BME280;58097;48.364;-1.224;2023-09-30T07:15:14;100605.69;;;14.03;89.84
70544;BME280;58097;48.364;-1.224;2023-09-30T07:17:40;100610.06;;;14.13;90.12
70544;BME280;58097;48.364;-1.224;2023-09-30T07:20:06;100615.69;;;14.21;89.80
70544;BME280;58097;48.364;-1.224;2023-09-30T07:22:35;100613.44;;;14.25;90.21
70544;BME280;58097;48.364;-1.224;2023-09-30T07:25:01;100614.31;;;14.34;90.12
70544;BME280;58097;48.364;-1.224;2023-09-30T07:27:26;100618.50;;;14.38;89.79
70544;BME280;58097;48.364;-1.224;2023-09-30T07:29:52;100617.97;;;14.42;89.64
70544;BME280;58097;48.364;-1.224;2023-09-30T07:32:17;100622.06;;;14.48;89.80
70544;BME280;58097;48.364;-1.224;2023-09-30T07:34:43;100631.81;;;14.52;89.63
70544;BME280;58097;48.364;-1.224;2023-09-30T07:37:08;100632.66;;;14.52;89.52
70544;BME280;58097;48.364;-1.224;2023-09-30T07:39:35;100632.00;;;14.59;89.66
70544;BME280;58097;48.364;-1.224;2023-09-30T07:42:00;100631.13;;;14.66;89.40
70544;BME280;58097;48.364;-1.224;2023-09-30T07:44:26;100631.81;;;14.68;89.53
70544;BME280;58097;48.364;-1.224;2023-09-30T07:46:51;100630.59;;;14.63;89.47
70544;BME280;58097;48.364;-1.224;2023-09-30T07:49:17;100624.88;;;14.72;89.09
70544;BME280;58097;48.364;-1.224;2023-09-30T07:51:42;100629.25;;;14.83;89.86
70544;BME280;58097;48.364;-1.224;2023-09-30T07:54:08;100625.97;;;14.87;89.45
70544;BME280;58097;48.364;-1.224;2023-09-30T07:56:33;100624.03;;;14.96;89.75
70544;BME280;58097;48.364;-1.224;2023-09-30T07:58:59;100628.59;;;15.13;89.80
70544;BME280;58097;48.364;-1.224;2023-09-30T08:01:24;100631.72;;;15.27;88.95
70544;BME280;58097;48.364;-1.224;2023-09-30T08:03:50;100624.56;;;15.32;88.56
70544;BME280;58097;48.364;-1.224;2023-09-30T08:06:15;100619.53;;;15.44;88.72
70544;BME280;58097;48.364;-1.224;2023-09-30T08:08:40;100617.97;;;15.66;88.81
70544;BME280;58097;48.364;-1.224;2023-09-30T08:11:06;100614.31;;;15.65;85.97
70544;BME280;58097;48.364;-1.224;2023-09-30T08:13:35;100623.00;;;15.78;86.36
70544;BME280;58097;48.364;-1.224;2023-09-30T08:16:00;100609.72;;;15.97;86.69
70544;BME280;58097;48.364;-1.224;2023-09-30T08:18:25;100615.44;;;16.03;85.90
70544;BME280;58097;48.364;-1.224;2023-09-30T08:20:51;100613.47;;;16.20;85.45
70544;BME280;58097;48.364;-1.224;2023-09-30T08:23:16;100616.91;;;16.30;84.73
70544;BME280;58097;48.364;-1.224;2023-09-30T08:25:42;100609.03;;;16.34;83.24
70544;BME280;58097;48.364;-1.224;2023-09-30T08:28:07;100619.50;;;16.32;83.13
70544;BME280;58097;48.364;-1.224;2023-09-30T08:30:35;100623.47;;;16.37;82.86
70544;BME280;58097;48.364;-1.224;2023-09-30T08:33:00;100631.41;;;16.57;84.72
70544;BME280;58097;48.364;-1.224;2023-09-30T08:35:26;100621.00;;;16.51;81.85
70544;BME280;58097;48.364;-1.224;2023-09-30T08:37:51;100628.75;;;16.63;83.02
70544;BME280;58097;48.364;-1.224;2023-09-30T08:40:22;100627.66;;;16.81;83.66
70544;BME280;58097;48.364;-1.224;2023-09-30T08:42:54;100630.44;;;16.81;81.73
70544;BME280;58097;48.364;-1.224;2023-09-30T08:45:19;100631.19;;;16.97;82.86
70544;BME280;58097;48.364;-1.224;2023-09-30T08:47:45;100640.53;;;17.04;81.19
70544;BME280;58097;48.364;-1.224;2023-09-30T08:50:16;100645.78;;;17.08;82.38
70544;BME280;58097;48.364;-1.224;2023-09-30T08:52:43;100647.66;;;17.15;81.70
70544;BME280;58097;48.364;-1.224;2023-09-30T08:55:12;100653.03;;;17.17;80.37
70544;BME280;58097;48.364;-1.224;2023-09-30T08:57:41;100652.56;;;17.36;81.65
70544;BME280;58097;48.364;-1.224;2023-09-30T09:00:09;100650.75;;;17.43;79.52
70544;BME280;58097;48.364;-1.224;2023-09-30T09:02:41;100649.56;;;17.38;77.74
70544;BME280;58097;48.364;-1.224;2023-09-30T09:05:07;100641.13;;;17.60;81.03
70544;BME280;58097;48.364;-1.224;2023-09-30T09:07:34;100637.66;;;17.81;79.78
70544;BME280;58097;48.364;-1.224;2023-09-30T09:10:17;100628.03;;;17.99;81.98
70544;BME280;58097;48.364;-1.224;2023-09-30T09:12:54;100625.50;;;18.18;80.75
70544;BME280;58097;48.364;-1.224;2023-09-30T09:15:22;100629.16;;;18.19;76.13
70544;BME280;58097;48.364;-1.224;2023-09-30T09:17:48;100630.81;;;18.13;75.98
70544;BME280;58097;48.364;-1.224;2023-09-30T09:20:20;100625.31;;;18.35;78.37
70544;BME280;58097;48.364;-1.224;2023-09-30T09:22:47;100622.78;;;18.40;76.00
70544;BME280;58097;48.364;-1.224;2023-09-30T09:25:13;100623.47;;;18.42;75.54
70544;BME280;58097;48.364;-1.224;2023-09-30T09:27:38;100618.78;;;18.27;74.66
70544;BME280;58097;48.364;-1.224;2023-09-30T09:35:21;100625.66;;;18.61;76.31
70544;BME280;58097;48.364;-1.224;2023-09-30T09:38:06;100627.44;;;18.62;74.19
70544;BME280;58097;48.364;-1.224;2023-09-30T09:40:36;100616.41;;;18.61;75.40
70544;BME280;58097;48.364;-1.224;2023-09-30T09:43:03;100617.44;;;18.74;76.33
70544;BME280;58097;48.364;-1.224;2023-09-30T09:45:33;100612.00;;;18.87;75.78
70544;BME280;58097;48.364;-1.224;2023-09-30T09:47:58;100612.28;;;18.93;77.04
70544;BME280;58097;48.364;-1.224;2023-09-30T09:50:24;100616.06;;;19.06;75.01
70544;BME280;58097;48.364;-1.224;2023-09-30T09:52:53;100611.44;;;19.13;74.78
70544;BME280;58097;48.364;-1.224;2023-09-30T09:55:25;100612.75;;;18.96;74.46
70544;BME280;58097;48.364;-1.224;2023-09-30T09:57:50;100610.09;;;19.09;75.48
70544;BME280;58097;48.364;-1.224;2023-09-30T10:00:18;100607.69;;;19.28;75.41
70544;BME280;58097;48.364;-1.224;2023-09-30T10:02:47;100607.22;;;19.45;77.08
70544;BME280;58097;48.364;-1.224;2023-09-30T10:05:14;100600.94;;;19.43;73.09
70544;BME280;58097;48.364;-1.224;2023-09-30T10:10:18;100609.97;;;19.39;72.78
70544;BME280;58097;48.364;-1.224;2023-09-30T10:12:44;100602.56;;;19.10;70.73
70544;BME280;58097;48.364;-1.224;2023-09-30T10:18:03;100604.00;;;19.48;74.89
70544;BME280;58097;48.364;-1.224;2023-09-30T10:20:34;100601.41;;;19.68;74.45
70544;BME280;58097;48.364;-1.224;2023-09-30T10:23:25;100606.81;;;19.70;71.80
70544;BME280;58097;48.364;-1.224;2023-09-30T10:28:42;100607.38;;;19.65;72.61
70544;BME280;58097;48.364;-1.224;2023-09-30T10:31:22;100609.28;;;19.58;71.68
70544;BME280;58097;48.364;-1.224;2023-09-30T10:36:38;100604.09;;;19.83;71.81
70544;BME280;58097;48.364;-1.224;2023-09-30T10:39:05;100595.34;;;19.99;70.94
70544;BME280;58097;48.364;-1.224;2023-09-30T10:46:56;100596.94;;;20.50;73.30
70544;BME280;58097;48.364;-1.224;2023-09-30T10:51:54;100603.94;;;20.73;71.69
70544;BME280;58097;48.364;-1.224;2023-09-30T10:54:25;100600.88;;;20.55;68.73
70544;BME280;58097;48.364;-1.224;2023-09-30T10:56:51;100609.56;;;20.73;71.62
70544;BME280;58097;48.364;-1.224;2023-09-30T10:59:18;100594.44;;;20.75;70.65
70544;BME280;58097;48.364;-1.224;2023-09-30T11:01:44;100591.03;;;20.86;72.23
70544;BME280;58097;48.364;-1.224;2023-09-30T11:04:09;100588.47;;;20.97;71.55
70544;BME280;58097;48.364;-1.224;2023-09-30T11:06:40;100589.59;;;21.16;71.14
70544;BME280;58097;48.364;-1.224;2023-09-30T11:09:06;100593.94;;;21.25;70.55
70544;BME280;58097;48.364;-1.224;2023-09-30T11:11:37;100592.00;;;21.32;69.46
70544;BME280;58097;48.364;-1.224;2023-09-30T11:14:03;100578.63;;;21.41;68.14
70544;BME280;58097;48.364;-1.224;2023-09-30T11:16:40;100579.91;;;21.45;69.14
70544;BME280;58097;48.364;-1.224;2023-09-30T11:19:06;100579.88;;;21.12;64.94
70544;BME280;58097;48.364;-1.224;2023-09-30T11:21:33;100572.47;;;20.91;64.81
70544;BME280;58097;48.364;-1.224;2023-09-30T11:24:00;100571.66;;;21.11;69.43
70544;BME280;58097;48.364;-1.224;2023-09-30T11:26:29;100568.88;;;21.24;68.66
70544;BME280;58097;48.364;-1.224;2023-09-30T11:29:05;100570.81;;;21.37;67.63
70544;BME280;58097;48.364;-1.224;2023-09-30T11:31:31;100568.22;;;21.48;67.05
70544;BME280;58097;48.364;-1.224;2023-09-30T11:33:59;100572.13;;;21.54;68.08
70544;BME280;58097;48.364;-1.224;2023-09-30T11:36:29;100569.75;;;21.57;65.70
70544;BME280;58097;48.364;-1.224;2023-09-30T11:38:55;100574.06;;;21.60;65.54
70544;BME280;58097;48.364;-1.224;2023-09-30T11:41:21;100570.81;;;21.76;67.67
70544;BME280;58097;48.364;-1.224;2023-09-30T11:44:07;100572.50;;;21.90;66.74
70544;BME280;58097;48.364;-1.224;2023-09-30T11:46:47;100570.13;;;22.07;66.81
70544;BME280;58097;48.364;-1.224;2023-09-30T11:49:27;100573.34;;;22.17;68.00
70544;BME280;58097;48.364;-1.224;2023-09-30T11:51:52;100574.19;;;22.24;66.67
70544;BME280;58097;48.364;-1.224;2023-09-30T11:54:18;100573.72;;;22.34;66.97
70544;BME280;58097;48.364;-1.224;2023-09-30T11:56:43;100568.94;;;22.41;65.33
70544;BME280;58097;48.364;-1.224;2023-09-30T11:59:10;100568.75;;;22.36;63.66
70544;BME280;58097;48.364;-1.224;2023-09-30T12:01:36;100566.59;;;22.32;66.60
70544;BME280;58097;48.364;-1.224;2023-09-30T12:04:03;100562.06;;;22.31;64.95
70544;BME280;58097;48.364;-1.224;2023-09-30T12:06:28;100563.13;;;22.36;64.85
70544;BME280;58097;48.364;-1.224;2023-09-30T12:08:54;100562.63;;;22.46;66.31
70544;BME280;58097;48.364;-1.224;2023-09-30T12:11:20;100552.69;;;22.43;64.15
70544;BME280;58097;48.364;-1.224;2023-09-30T12:13:45;100543.09;;;22.51;66.94
70544;BME280;58097;48.364;-1.224;2023-09-30T12:16:14;100557.19;;;22.58;64.80
70544;BME280;58097;48.364;-1.224;2023-09-30T12:18:40;100538.28;;;22.65;65.44
70544;BME280;58097;48.364;-1.224;2023-09-30T12:21:07;100535.81;;;22.75;65.80
70544;BME280;58097;48.364;-1.224;2023-09-30T12:23:33;100542.31;;;22.82;66.04
70544;BME280;58097;48.364;-1.224;2023-09-30T12:25:58;100532.50;;;22.46;60.43
70544;BME280;58097;48.364;-1.224;2023-09-30T12:28:24;100535.78;;;22.43;62.70
70544;BME280;58097;48.364;-1.224;2023-09-30T12:30:49;100532.91;;;22.50;64.30
70544;BME280;58097;48.364;-1.224;2023-09-30T12:33:14;100536.44;;;22.39;63.50
70544;BME280;58097;48.364;-1.224;2023-09-30T12:35:40;100531.28;;;22.36;63.15
70544;BME280;58097;48.364;-1.224;2023-09-30T12:38:05;100532.50;;;22.46;63.71
70544;BME280;58097;48.364;-1.224;2023-09-30T12:40:30;100537.25;;;22.52;63.00
70544;BME280;58097;48.364;-1.224;2023-09-30T12:42:56;100528.09;;;22.64;63.72
70544;BME280;58097;48.364;-1.224;2023-09-30T12:45:22;100530.28;;;22.62;61.93
70544;BME280;58097;48.364;-1.224;2023-09-30T12:47:48;100528.00;;;22.77;62.74
70544;BME280;58097;48.364;-1.224;2023-09-30T12:50:13;100522.16;;;22.85;63.37
70544;BME280;58097;48.364;-1.224;2023-09-30T12:52:39;100522.56;;;22.89;63.24
70544;BME280;58097;48.364;-1.224;2023-09-30T12:55:05;100515.78;;;22.96;65.13
70544;BME280;58097;48.364;-1.224;2023-09-30T12:57:31;100526.09;;;23.09;63.99
70544;BME280;58097;48.364;-1.224;2023-09-30T12:59:56;100526.16;;;23.02;61.13
70544;BME280;58097;48.364;-1.224;2023-09-30T13:02:22;100526.16;;;23.02;62.11
70544;BME280;58097;48.364;-1.224;2023-09-30T13:04:47;100523.50;;;23.07;63.71